logo
Search for airport 
image banner adimage banner adimage banner ad
image banner ad

HKHO - Hola

Located in Hola, Kenya

ICAO - HKHO, IATA - HOA

Data provided by Airmate  

General information

Coordinates: S1°31'9" E40°0'3"
Elevation is 195 feet MSL.
 
View others Airports in Coast Province

Operational data

Special qualification required
Current time UTC:
Current local time:
Weather at : - ( 0 km )
METAR: PPIZ 180732Z AUTO 04021KT 1SM -SN BR BKN018 OVC023 M11/M12 A3023 RMK AO2 PK WND 03026/0730 P0000 FZRANO
View NOTAMs / SUP AIP / TFR affecting this airport [VIEW]
Communications frequencies: [VIEW]

Runways:

RWY identifierQFULength (ft)Width (ft)SurfaceLDA (ft)
01295359UNK
19295359UNK

Airport contact information

Address: Hola Kenya

Satellite view of HKHO